Time;durP1;ratioP1;P1;durP2;ratioP2;P2;SDS_P1;SDS_P2;PMS_P1;PMS_P2;Temp;Humidity;BMP_temperature;BMP_pressure;BME280_temperature;BME280_humidity;BME280_pressure;Samples;Min_cycle;Max_cycle;Signal;HPM_P1;HPM_P2
2023/03/29 00:01:41;;;;;;;3.63;1.87;;;6.30;99.90;;;;;;5054105;28;20204;-82
2023/03/29 00:04:12;;;;;;;3.30;1.90;;;6.30;1.00;;;;;;5053407;28;20254;-81
2023/03/29 00:06:40;;;;;;;3.47;2.00;;;6.30;99.90;;;;;;5042717;28;20204;-82
2023/03/29 00:09:08;;;;;;;5.20;1.93;;;6.30;95.40;;;;;;5052381;28;20242;-82
2023/03/29 00:11:35;;;;;;;3.27;2.00;;;6.30;99.90;;;;;;5054467;28;20214;-82
2023/03/29 00:14:02;;;;;;;5.27;1.97;;;6.20;1.00;;;;;;5042941;28;20284;-82
2023/03/29 00:16:29;;;;;;;3.30;2.20;;;6.20;1.00;;;;;;5053533;28;20306;-82
2023/03/29 00:18:56;;;;;;;5.77;2.07;;;6.20;99.90;;;;;;5053490;28;20208;-81
2023/03/29 00:21:25;;;;;;;3.10;1.97;;;6.20;99.90;;;;;;5052736;28;20267;-81
2023/03/29 00:23:51;;;;;;;3.97;1.80;;;6.30;99.90;;;;;;5053806;28;20230;-82
2023/03/29 00:26:18;;;;;;;4.27;2.07;;;6.30;99.90;;;;;;5052640;28;20214;-81
2023/03/29 00:28:45;;;;;;;8.27;2.60;;;6.10;99.90;;;;;;5051786;28;20534;-82
2023/03/29 00:31:14;;;;;;;3.43;1.77;;;6.30;99.90;;;;;;5035379;28;20291;-81
2023/03/29 00:33:42;;;;;;;4.37;1.67;;;6.30;1.00;;;;;;5047816;28;20545;-82
2023/03/29 00:36:11;;;;;;;3.57;1.70;;;6.20;1.00;;;;;;5046426;28;20213;-81
2023/03/29 00:38:39;;;;;;;3.37;1.77;;;6.20;1.00;;;;;;5051404;28;20187;-82
2023/03/29 00:41:08;;;;;;;4.50;2.27;;;6.20;99.90;;;;;;5053702;28;20249;-82
2023/03/29 00:44:00;;;;;;;4.33;2.57;;;6.20;1.00;;;;;;5033352;28;20222;-82
2023/03/29 00:46:29;;;;;;;4.33;2.13;;;6.20;1.00;;;;;;5052710;28;20247;-81
2023/03/29 00:49:00;;;;;;;6.03;2.20;;;6.20;1.00;;;;;;5053617;28;20188;-82
2023/03/29 00:51:29;;;;;;;7.03;2.17;;;6.20;99.90;;;;;;5052635;28;20213;-81
2023/03/29 00:54:01;;;;;;;4.57;2.03;;;6.20;99.90;;;;;;5052024;28;20308;-82
2023/03/29 00:56:33;;;;;;;3.53;1.97;;;6.10;1.00;;;;;;5053689;28;20200;-82
2023/03/29 00:59:04;;;;;;;4.37;2.10;;;6.20;1.00;;;;;;5052829;28;20286;-81
2023/03/29 01:01:36;;;;;;;5.53;2.30;;;6.10;1.00;;;;;;5052945;28;20657;-82
2023/03/29 01:04:08;;;;;;;3.80;2.07;;;6.20;1.00;;;;;;5052747;28;20277;-82
2023/03/29 01:06:38;;;;;;;5.57;2.10;;;6.20;1.00;;;;;;5052608;28;20200;-82
2023/03/29 01:09:09;;;;;;;6.93;2.43;;;6.10;1.00;;;;;;5052905;28;20200;-81
2023/03/29 01:11:40;;;;;;;5.60;2.53;;;6.20;1.00;;;;;;5052913;28;20263;-82
2023/03/29 01:14:12;;;;;;;5.70;2.10;;;6.10;1.00;;;;;;5051771;28;20287;-82
2023/03/29 01:16:38;;;;;;;5.53;2.10;;;6.10;1.00;;;;;;5053613;28;20223;-82
2023/03/29 01:19:07;;;;;;;5.37;1.97;;;6.20;1.00;;;;;;5053452;28;20234;-82
2023/03/29 01:21:41;;;;;;;3.20;2.40;;;6.10;1.00;;;;;;5032628;28;20200;-82
2023/03/29 01:24:44;;;;;;;6.63;2.50;;;6.10;1.00;;;;;;5053442;28;20212;-82
2023/03/29 01:27:17;;;;;;;6.63;2.20;;;6.20;1.00;;;;;;5050554;28;20263;-82
2023/03/29 01:29:48;;;;;;;2.77;1.87;;;6.10;1.00;;;;;;5052731;28;20263;-82
2023/03/29 01:32:21;;;;;;;5.33;1.93;;;6.10;29.10;;;;;;5052125;28;20277;-81
2023/03/29 01:34:53;;;;;;;2.83;2.23;;;6.00;99.90;;;;;;5052139;28;20241;-81
2023/03/29 01:37:25;;;;;;;3.77;2.30;;;6.10;99.90;;;;;;5052910;28;20256;-81
2023/03/29 01:39:52;;;;;;;4.83;2.30;;;6.00;99.90;;;;;;5050948;28;20200;-82
2023/03/29 01:42:37;;;;;;;4.97;2.67;;;6.10;73.60;;;;;;5052692;28;20306;-81
2023/03/29 01:45:13;;;;;;;4.17;2.83;;;6.10;99.90;;;;;;5052496;28;20281;-82
2023/03/29 01:47:46;;;;;;;6.00;2.73;;;6.10;1.00;;;;;;5052579;28;20759;-82
2023/03/29 01:50:17;;;;;;;5.03;2.50;;;6.00;99.90;;;;;;5052237;28;20203;-81
2023/03/29 01:52:50;;;;;;;8.00;3.63;;;6.00;1.00;;;;;;5052092;28;20268;-81
2023/03/29 01:55:21;;;;;;;6.97;3.10;;;5.90;99.90;;;;;;5051938;28;20630;-82
2023/03/29 01:57:50;;;;;;;3.93;2.40;;;5.90;99.90;;;;;;5051770;28;20260;-81
2023/03/29 02:00:23;;;;;;;5.03;3.00;;;6.00;1.00;;;;;;5051816;28;20242;-81
2023/03/29 02:02:53;;;;;;;4.67;2.83;;;5.90;1.00;;;;;;5051670;28;20279;-82
2023/03/29 02:05:23;;;;;;;9.37;2.90;;;5.90;1.00;;;;;;5050582;28;20202;-82
2023/03/29 02:07:51;;;;;;;5.20;3.10;;;5.90;1.00;;;;;;5052123;28;20192;-82
2023/03/29 02:10:20;;;;;;;4.43;2.50;;;5.90;1.00;;;;;;5052168;28;20226;-82
2023/03/29 02:12:47;;;;;;;7.27;3.17;;;5.80;99.90;;;;;;5051546;28;20239;-82
2023/03/29 02:15:17;;;;;;;6.67;3.00;;;5.80;99.90;;;;;;5051594;28;20207;-82
2023/03/29 02:17:46;;;;;;;6.83;3.10;;;5.80;99.90;;;;;;5052571;28;20286;-81
2023/03/29 02:20:21;;;;;;;6.13;3.17;;;5.80;99.90;;;;;;5051274;28;20208;-82
2023/03/29 02:22:56;;;;;;;6.40;3.13;;;5.70;99.90;;;;;;5051503;28;20219;-81
2023/03/29 02:25:24;;;;;;;6.63;3.53;;;5.80;99.90;;;;;;5049694;28;20199;-85
2023/03/29 02:27:52;;;;;;;6.43;3.13;;;5.70;99.90;;;;;;5049464;28;20211;-82
2023/03/29 02:30:20;;;;;;;6.60;3.10;;;5.70;99.90;;;;;;5037823;28;20200;-81
2023/03/29 02:32:55;;;;;;;7.03;3.60;;;5.70;99.90;;;;;;5044957;28;20223;-82
2023/03/29 02:35:27;;;;;;;7.40;3.20;;;5.80;99.90;;;;;;5029799;28;20558;-81
2023/03/29 02:37:55;;;;;;;6.50;2.90;;;5.80;99.90;;;;;;5044537;28;20207;-81
2023/03/29 02:40:24;;;;;;;6.97;3.37;;;5.80;99.90;;;;;;5060159;28;20226;-81
2023/03/29 02:42:54;;;;;;;4.67;3.00;;;5.80;99.90;;;;;;5067807;28;20227;-82
2023/03/29 02:45:22;;;;;;;5.53;3.07;;;5.80;99.90;;;;;;5070509;28;20209;-81
2023/03/29 02:47:54;;;;;;;6.53;3.43;;;5.80;99.90;;;;;;5068790;28;20211;-81
2023/03/29 02:50:21;;;;;;;4.33;3.00;;;5.80;99.90;;;;;;5052615;28;20286;-81
2023/03/29 02:52:53;;;;;;;3.87;2.83;;;5.70;99.90;;;;;;5050183;28;20223;-82
2023/03/29 02:55:24;;;;;;;6.87;3.20;;;5.60;99.90;;;;;;5049939;28;20251;-81
2023/03/29 02:57:51;;;;;;;4.90;3.30;;;5.70;99.90;;;;;;5047704;28;20207;-81
2023/03/29 03:00:19;;;;;;;4.77;3.07;;;5.60;99.90;;;;;;5047385;28;20267;-82
2023/03/29 03:02:47;;;;;;;6.90;3.57;;;5.60;99.90;;;;;;5048636;28;20218;-81
2023/03/29 03:05:16;;;;;;;5.43;3.70;;;5.50;99.90;;;;;;5046423;28;20215;-81
2023/03/29 03:07:43;;;;;;;8.13;3.70;;;5.60;99.90;;;;;;5046526;28;20227;-81
2023/03/29 03:10:11;;;;;;;6.13;3.93;;;5.40;99.90;;;;;;5044778;28;20707;-81
2023/03/29 03:12:38;;;;;;;8.87;3.90;;;5.40;99.90;;;;;;5044850;28;20953;-81
2023/03/29 03:15:06;;;;;;;7.80;4.33;;;5.30;99.90;;;;;;5044008;28;20593;-83
2023/03/29 03:17:38;;;;;;;4.80;3.70;;;5.30;99.90;;;;;;5048855;28;20267;-83
2023/03/29 03:20:09;;;;;;;19.30;10.23;;;5.30;99.90;;;;;;5046608;28;20203;-83
2023/03/29 03:22:38;;;;;;;11.70;6.40;;;5.30;99.90;;;;;;5048795;28;20314;-83
2023/03/29 03:25:05;;;;;;;6.77;4.13;;;5.20;99.90;;;;;;5047651;28;20294;-82
2023/03/29 03:27:32;;;;;;;6.43;4.10;;;5.30;99.90;;;;;;5042553;28;20282;-82
2023/03/29 03:29:59;;;;;;;7.23;4.10;;;5.30;99.90;;;;;;5045711;28;20216;-83
2023/03/29 03:32:26;;;;;;;8.30;4.30;;;5.20;99.90;;;;;;5043040;28;20224;-84
2023/03/29 03:34:53;;;;;;;6.33;3.67;;;5.30;99.90;;;;;;5042233;28;20729;-84
2023/03/29 03:37:20;;;;;;;6.93;4.33;;;5.20;99.90;;;;;;5042838;28;20207;-84
2023/03/29 03:39:48;;;;;;;9.70;4.43;;;5.20;99.90;;;;;;5044248;28;20195;-84
2023/03/29 03:42:15;;;;;;;10.50;4.23;;;5.20;99.90;;;;;;5045433;28;20224;-84
2023/03/29 03:44:42;;;;;;;7.07;3.90;;;5.20;99.90;;;;;;5043214;28;20230;-84
2023/03/29 03:47:08;;;;;;;9.70;4.70;;;5.20;99.90;;;;;;5043739;28;20210;-84
2023/03/29 03:49:35;;;;;;;9.83;4.33;;;5.20;99.90;;;;;;5045308;28;20282;-84
2023/03/29 03:52:02;;;;;;;6.20;4.03;;;5.20;99.90;;;;;;5044373;28;20226;-84
2023/03/29 03:54:29;;;;;;;8.37;4.27;;;5.30;99.90;;;;;;5040572;28;20220;-84
2023/03/29 03:56:57;;;;;;;7.30;4.20;;;5.20;99.90;;;;;;5043810;28;20263;-84
2023/03/29 03:59:24;;;;;;;5.20;3.70;;;5.20;99.90;;;;;;5043118;28;20200;-84
2023/03/29 04:01:51;;;;;;;9.33;4.33;;;5.20;99.90;;;;;;5042339;28;20206;-84
2023/03/29 04:04:19;;;;;;;6.67;4.00;;;5.20;99.90;;;;;;5044415;28;20192;-84
2023/03/29 04:06:46;;;;;;;7.43;4.10;;;5.20;99.90;;;;;;5040998;28;20267;-84
2023/03/29 04:09:13;;;;;;;6.77;3.83;;;5.10;99.90;;;;;;5042746;28;20202;-84
2023/03/29 04:11:39;;;;;;;7.13;3.80;;;5.20;99.90;;;;;;5044399;28;20215;-84
2023/03/29 04:14:08;;;;;;;5.73;3.53;;;5.20;99.90;;;;;;5043368;28;20274;-84
2023/03/29 04:16:35;;;;;;;5.63;3.70;;;5.20;99.90;;;;;;5044700;28;20195;-84
2023/03/29 04:19:02;;;;;;;8.47;4.10;;;5.20;99.90;;;;;;5042912;28;20199;-84
2023/03/29 04:21:29;;;;;;;7.50;4.10;;;5.20;99.90;;;;;;5044638;28;20200;-84
2023/03/29 04:23:56;;;;;;;6.93;4.17;;;5.20;99.90;;;;;;5044368;28;20219;-84
2023/03/29 04:26:23;;;;;;;7.60;3.87;;;5.20;99.90;;;;;;5043303;28;20218;-84
2023/03/29 04:28:49;;;;;;;4.93;3.40;;;5.20;99.90;;;;;;5040779;28;20210;-84
2023/03/29 04:31:17;;;;;;;5.67;3.67;;;5.10;99.90;;;;;;5044312;28;20196;-83
2023/03/29 04:33:45;;;;;;;7.87;4.90;;;5.10;99.90;;;;;;5042091;28;20233;-84
2023/03/29 04:36:14;;;;;;;7.40;4.00;;;5.20;99.90;;;;;;5045566;28;20199;-84
2023/03/29 04:38:41;;;;;;;6.77;4.43;;;5.20;99.90;;;;;;5043878;28;20208;-83
2023/03/29 04:41:08;;;;;;;5.30;4.03;;;5.20;99.90;;;;;;5045059;28;20199;-84
2023/03/29 04:43:35;;;;;;;6.27;3.77;;;5.20;99.90;;;;;;5043786;28;20250;-84
2023/03/29 04:46:02;;;;;;;6.67;4.40;;;5.30;99.90;;;;;;5043203;28;20210;-84
2023/03/29 04:48:31;;;;;;;6.33;4.30;;;5.30;99.90;;;;;;5044740;28;20282;-84
2023/03/29 04:50:58;;;;;;;7.37;4.53;;;5.30;99.90;;;;;;5042981;28;20208;-84
2023/03/29 04:53:25;;;;;;;5.83;4.67;;;5.30;99.90;;;;;;5041707;28;20247;-84
2023/03/29 04:55:54;;;;;;;7.57;4.00;;;5.30;99.90;;;;;;5044054;28;20211;-84
2023/03/29 04:58:21;;;;;;;8.13;4.80;;;5.30;99.90;;;;;;5041416;28;20195;-84
2023/03/29 05:00:48;;;;;;;6.27;4.23;;;5.30;99.90;;;;;;5039478;28;20200;-83
2023/03/29 05:03:15;;;;;;;6.43;4.30;;;5.30;99.90;;;;;;5038730;28;20220;-83
2023/03/29 05:05:43;;;;;;;8.10;4.47;;;5.30;99.90;;;;;;5038321;28;20203;-83
2023/03/29 05:08:10;;;;;;;8.27;5.10;;;5.30;99.90;;;;;;5040358;28;20260;-83
2023/03/29 05:10:37;;;;;;;8.20;4.60;;;5.30;99.90;;;;;;5039942;28;20200;-83
2023/03/29 05:13:03;;;;;;;8.90;4.87;;;5.30;99.90;;;;;;5038239;28;20222;-84
2023/03/29 05:15:31;;;;;;;8.00;5.10;;;5.30;99.90;;;;;;5038790;28;20196;-83
2023/03/29 05:17:59;;;;;;;10.13;5.17;;;5.30;99.90;;;;;;5022981;28;20206;-84
2023/03/29 05:20:27;;;;;;;8.57;5.43;;;5.30;99.90;;;;;;5037240;28;20207;-83
2023/03/29 05:22:55;;;;;;;7.00;4.80;;;5.30;99.90;;;;;;5036451;28;20220;-83
2023/03/29 05:25:22;;;;;;;8.10;4.80;;;5.30;99.90;;;;;;5037018;28;20206;-84
2023/03/29 05:27:49;;;;;;;9.00;4.80;;;5.30;99.90;;;;;;5029239;28;20214;-83
2023/03/29 05:30:16;;;;;;;9.13;5.10;;;5.30;99.90;;;;;;5035652;28;20635;-83
2023/03/29 05:32:43;;;;;;;8.07;5.20;;;5.30;99.90;;;;;;5033531;28;20231;-84
2023/03/29 05:35:10;;;;;;;10.40;5.33;;;5.40;99.90;;;;;;5033404;28;20235;-83
2023/03/29 05:37:37;;;;;;;8.13;5.50;;;5.40;99.90;;;;;;5034787;28;20634;-84
2023/03/29 05:40:08;;;;;;;12.87;5.57;;;5.40;99.90;;;;;;5034542;28;20196;-84
2023/03/29 05:42:36;;;;;;;11.83;5.33;;;5.40;99.90;;;;;;5037923;28;20803;-83
2023/03/29 05:45:03;;;;;;;9.77;5.80;;;5.40;99.90;;;;;;5040940;28;20701;-83
2023/03/29 05:47:31;;;;;;;10.87;5.37;;;5.40;99.90;;;;;;5040224;28;20238;-83
2023/03/29 05:49:58;;;;;;;9.27;5.83;;;5.40;99.90;;;;;;5036848;28;20200;-84
2023/03/29 05:52:26;;;;;;;10.23;5.93;;;5.50;99.90;;;;;;5040863;28;20287;-83
2023/03/29 05:54:53;;;;;;;10.80;6.07;;;5.50;99.90;;;;;;5042407;28;20229;-81
2023/03/29 05:57:21;;;;;;;8.60;5.33;;;5.50;99.90;;;;;;5042299;28;20271;-84
2023/03/29 05:59:48;;;;;;;11.33;6.00;;;5.50;99.90;;;;;;5040279;28;20266;-86
2023/03/29 06:02:15;;;;;;;9.87;5.77;;;5.60;99.90;;;;;;5025087;28;20251;-84
2023/03/29 06:04:42;;;;;;;10.63;5.57;;;5.60;99.90;;;;;;5018542;28;20203;-84
2023/03/29 06:07:11;;;;;;;9.17;5.47;;;5.70;99.90;;;;;;5040153;28;20581;-84
2023/03/29 06:09:39;;;;;;;11.63;5.83;;;5.50;99.90;;;;;;5038670;28;20231;-83
2023/03/29 06:12:06;;;;;;;8.57;5.13;;;5.70;99.90;;;;;;5038460;28;20579;-83
2023/03/29 06:14:35;;;;;;;10.10;5.57;;;5.80;99.90;;;;;;5038341;28;20226;-84
2023/03/29 06:17:02;;;;;;;9.50;5.33;;;5.80;99.90;;;;;;5034733;28;20208;-83
2023/03/29 06:19:29;;;;;;;8.50;5.67;;;5.80;99.90;;;;;;5035209;28;20204;-83
2023/03/29 06:21:55;;;;;;;10.67;5.80;;;5.90;99.90;;;;;;5035753;28;20211;-84
2023/03/29 06:24:23;;;;;;;10.17;5.57;;;6.00;99.90;;;;;;5039233;28;20212;-84
2023/03/29 06:26:51;;;;;;;8.70;5.30;;;6.10;99.90;;;;;;5039473;28;20200;-82
2023/03/29 06:29:18;;;;;;;10.37;5.40;;;6.10;99.90;;;;;;5038885;28;20213;-83
2023/03/29 06:31:46;;;;;;;10.07;5.53;;;6.20;99.90;;;;;;5042061;28;20295;-83
2023/03/29 06:34:15;;;;;;;11.07;5.30;;;6.30;99.90;;;;;;5039696;28;20220;-83
2023/03/29 06:36:42;;;;;;;8.40;5.20;;;6.40;99.90;;;;;;5040776;28;20660;-83
2023/03/29 06:39:09;;;;;;;8.87;5.80;;;6.40;99.90;;;;;;5041098;28;20275;-83
2023/03/29 06:41:37;;;;;;;10.90;5.53;;;6.30;99.90;;;;;;5040295;28;20196;-84
2023/03/29 06:44:04;;;;;;;11.30;5.80;;;6.50;99.90;;;;;;5040847;28;20273;-84
2023/03/29 06:46:31;;;;;;;10.37;4.90;;;6.50;99.90;;;;;;5040818;28;20209;-83
2023/03/29 06:48:59;;;;;;;9.87;5.37;;;6.50;99.90;;;;;;5038834;28;20200;-84
2023/03/29 06:51:26;;;;;;;8.83;4.67;;;6.60;99.90;;;;;;5041428;28;20659;-82
2023/03/29 06:53:53;;;;;;;7.97;5.20;;;6.60;99.90;;;;;;5042109;28;20258;-83
2023/03/29 06:56:21;;;;;;;8.10;5.33;;;6.70;99.90;;;;;;5041432;28;20235;-83
2023/03/29 06:58:47;;;;;;;7.03;4.77;;;6.90;99.90;;;;;;5038966;28;20218;-83
2023/03/29 07:01:14;;;;;;;9.83;5.53;;;6.80;99.90;;;;;;5034321;28;20203;-84
2023/03/29 07:03:42;;;;;;;7.60;4.70;;;6.90;99.90;;;;;;5035047;28;20242;-84
2023/03/29 07:06:11;;;;;;;11.37;5.40;;;7.00;99.90;;;;;;5033055;28;20207;-83
2023/03/29 07:08:42;;;;;;;7.83;5.47;;;7.00;99.90;;;;;;5035586;28;20195;-83
2023/03/29 07:11:11;;;;;;;11.27;5.80;;;7.10;99.90;;;;;;5040254;28;20298;-84
2023/03/29 07:13:38;;;;;;;11.37;5.43;;;7.00;99.90;;;;;;5031553;28;20231;-82
2023/03/29 07:16:07;;;;;;;11.03;5.00;;;7.10;99.90;;;;;;5038945;28;20219;-83
2023/03/29 07:18:35;;;;;;;10.07;5.30;;;7.10;99.90;;;;;;5033890;28;20206;-83
2023/03/29 07:21:03;;;;;;;9.73;5.13;;;7.20;99.90;;;;;;5037419;28;20208;-83
2023/03/29 07:23:31;;;;;;;8.73;4.90;;;7.20;99.90;;;;;;5039756;28;20318;-83
2023/03/29 07:25:58;;;;;;;9.30;5.37;;;7.20;99.90;;;;;;5041228;28;20207;-82
2023/03/29 07:28:25;;;;;;;10.87;5.43;;;7.20;99.90;;;;;;5033015;28;20728;-83
2023/03/29 07:30:52;;;;;;;8.47;5.00;;;7.30;99.90;;;;;;5035091;28;20206;-82
2023/03/29 07:33:18;;;;;;;11.00;4.90;;;7.40;99.90;;;;;;5040299;28;20258;-82
2023/03/29 07:35:47;;;;;;;7.40;4.70;;;7.50;99.90;;;;;;5040707;28;20266;-83
2023/03/29 07:38:14;;;;;;;10.37;5.17;;;7.50;99.90;;;;;;5037728;28;20195;-84
2023/03/29 07:40:42;;;;;;;8.63;4.80;;;7.70;99.90;;;;;;5039568;28;20207;-84
2023/03/29 07:43:09;;;;;;;7.90;4.50;;;7.70;99.90;;;;;;5040073;28;20249;-84
2023/03/29 07:45:39;;;;;;;9.40;4.60;;;7.90;99.90;;;;;;5038257;28;20929;-84
2023/03/29 07:48:07;;;;;;;8.03;4.43;;;7.90;99.90;;;;;;5036664;28;20234;-84
2023/03/29 07:50:34;;;;;;;8.10;4.07;;;8.00;99.90;;;;;;5030506;28;20686;-83
2023/03/29 07:53:01;;;;;;;9.00;4.40;;;8.00;99.90;;;;;;5036390;28;20219;-83
2023/03/29 07:55:28;;;;;;;6.23;4.20;;;7.90;99.90;;;;;;5037592;28;20219;-83
2023/03/29 07:57:57;;;;;;;6.33;4.30;;;8.00;99.90;;;;;;5045464;28;20223;-82
2023/03/29 08:00:24;;;;;;;7.07;4.10;;;8.00;99.90;;;;;;5038749;28;20206;-83
2023/03/29 08:02:52;;;;;;;10.60;4.53;;;8.00;99.90;;;;;;5038200;28;20310;-83
2023/03/29 08:05:20;;;;;;;7.73;4.27;;;8.00;99.90;;;;;;5039440;28;20611;-82
2023/03/29 08:07:48;;;;;;;8.47;4.60;;;7.80;99.90;;;;;;5044443;28;20206;-83
2023/03/29 08:10:16;;;;;;;6.87;4.30;;;7.90;99.90;;;;;;5045437;28;20205;-85
2023/03/29 08:12:44;;;;;;;6.70;4.07;;;7.90;99.90;;;;;;5043545;28;20230;-84
2023/03/29 08:15:13;;;;;;;9.17;4.87;;;7.90;99.90;;;;;;5044154;28;20247;-84
2023/03/29 08:17:40;;;;;;;11.03;4.83;;;7.90;99.90;;;;;;5041545;28;20254;-82
2023/03/29 08:20:09;;;;;;;7.90;4.20;;;8.10;99.90;;;;;;5039907;28;20687;-83
2023/03/29 08:22:37;;;;;;;7.93;4.70;;;8.00;99.90;;;;;;5040536;28;20299;-83
2023/03/29 08:25:05;;;;;;;6.20;3.90;;;8.10;99.90;;;;;;5037584;28;20206;-84
2023/03/29 08:27:33;;;;;;;7.37;4.40;;;8.00;99.90;;;;;;5035228;28;20203;-84
2023/03/29 08:29:59;;;;;;;9.13;4.90;;;8.00;99.90;;;;;;5034703;28;20282;-84
2023/03/29 08:32:28;;;;;;;6.80;4.27;;;8.00;99.90;;;;;;5034205;28;20231;-85
2023/03/29 08:34:54;;;;;;;6.93;4.50;;;8.00;99.90;;;;;;5034693;28;20227;-84
2023/03/29 08:37:23;;;;;;;7.20;4.20;;;8.20;99.90;;;;;;5034224;28;20207;-84
2023/03/29 08:39:50;;;;;;;9.03;4.83;;;8.10;99.90;;;;;;5034511;28;20638;-84
2023/03/29 08:42:36;;;;;;;8.67;4.63;;;8.10;99.90;;;;;;5034170;28;20226;-85
2023/03/29 08:45:11;;;;;;;7.93;4.60;;;8.00;99.90;;;;;;5034285;28;20257;-86
2023/03/29 08:47:48;;;;;;;8.83;4.97;;;8.20;99.90;;;;;;5034087;28;20211;-86
2023/03/29 08:50:15;;;;;;;6.93;4.33;;;8.30;99.90;;;;;;5034053;28;20211;-86
2023/03/29 08:52:49;;;;;;;8.70;4.40;;;8.30;99.90;;;;;;5033727;28;20258;-85
2023/03/29 08:55:24;;;;;;;6.00;4.40;;;8.30;99.90;;;;;;5033871;28;20223;-86
2023/03/29 08:57:52;;;;;;;8.57;4.60;;;8.40;99.90;;;;;;5034045;28;20207;-85
2023/03/29 09:00:23;;;;;;;9.80;4.70;;;8.70;99.90;;;;;;5033567;28;20221;-84
2023/03/29 09:02:53;;;;;;;6.93;4.67;;;8.70;99.90;;;;;;5033839;28;20230;-86
2023/03/29 09:05:24;;;;;;;7.47;4.57;;;8.70;99.90;;;;;;5033888;28;20203;-85
2023/03/29 09:07:52;;;;;;;8.47;4.77;;;8.80;99.90;;;;;;5033751;28;20212;-84
2023/03/29 09:10:25;;;;;;;7.40;4.17;;;8.90;99.90;;;;;;5033406;28;20199;-87
2023/03/29 09:13:09;;;;;;;7.90;4.73;;;9.10;99.90;;;;;;5033519;28;20255;-86
2023/03/29 09:15:48;;;;;;;11.37;5.73;;;9.00;99.90;;;;;;5033295;28;20310;-86
2023/03/29 09:18:26;;;;;;;8.67;4.60;;;9.10;99.90;;;;;;5033286;28;20660;-86
2023/03/29 09:20:59;;;;;;;8.70;4.67;;;9.40;99.90;;;;;;5033129;28;20214;-86
2023/03/29 09:23:47;;;;;;;7.50;4.50;;;9.50;99.90;;;;;;5033421;28;20687;-86
2023/03/29 09:26:21;;;;;;;7.27;4.40;;;9.60;99.90;;;;;;5033541;28;20280;-85
2023/03/29 09:28:56;;;;;;;7.73;4.60;;;9.50;99.90;;;;;;5033165;28;20215;-86
2023/03/29 09:31:28;;;;;;;5.40;4.10;;;9.50;99.90;;;;;;5033329;28;20578;-85
2023/03/29 09:33:58;;;;;;;8.50;4.10;;;9.30;99.90;;;;;;5033099;28;20231;-84
2023/03/29 09:36:35;;;;;;;8.30;3.97;;;9.10;99.90;;;;;;5041899;28;20227;-83
2023/03/29 09:39:03;;;;;;;6.37;3.80;;;9.00;99.90;;;;;;5042868;28;20202;-82
2023/03/29 09:41:34;;;;;;;7.67;4.80;;;9.00;99.90;;;;;;5043737;28;20699;-83
2023/03/29 09:44:06;;;;;;;8.27;4.23;;;9.10;99.90;;;;;;5044499;28;20246;-83
2023/03/29 09:46:40;;;;;;;9.43;4.67;;;9.20;99.90;;;;;;5058398;28;20198;-82
2023/03/29 09:49:13;;;;;;;8.83;4.97;;;9.20;99.90;;;;;;5035729;28;20214;-81
2023/03/29 09:51:41;;;;;;;6.67;4.40;;;9.00;99.90;;;;;;5038069;28;20210;-82
2023/03/29 09:54:10;;;;;;;7.93;4.23;;;9.10;99.90;;;;;;5040910;28;20227;-82
2023/03/29 09:56:38;;;;;;;6.60;4.23;;;9.10;99.90;;;;;;5038153;28;20224;-83
2023/03/29 09:59:04;;;;;;;8.87;4.60;;;9.10;99.90;;;;;;5044312;28;20195;-84
2023/03/29 10:01:37;;;;;;;7.73;4.80;;;9.20;99.90;;;;;;5054283;28;20289;-83
2023/03/29 10:04:09;;;;;;;10.70;4.80;;;9.20;99.90;;;;;;5024009;28;20217;-83
2023/03/29 10:06:37;;;;;;;8.57;4.70;;;9.20;99.90;;;;;;5042179;28;20287;-82
2023/03/29 10:09:13;;;;;;;8.73;4.50;;;9.20;99.90;;;;;;5040040;28;20285;-82
2023/03/29 10:11:42;;;;;;;7.10;4.70;;;9.20;99.90;;;;;;5044003;28;20453;-83
2023/03/29 10:14:16;;;;;;;8.47;4.47;;;9.20;99.90;;;;;;5040595;28;20220;-83
2023/03/29 10:16:45;;;;;;;9.80;4.77;;;9.40;99.90;;;;;;5041520;28;20222;-83
2023/03/29 10:19:21;;;;;;;7.70;4.83;;;9.40;99.90;;;;;;5039756;28;20729;-83
2023/03/29 10:21:50;;;;;;;7.50;4.83;;;9.50;99.90;;;;;;5040530;28;20286;-83
2023/03/29 10:24:21;;;;;;;8.00;4.53;;;9.50;99.90;;;;;;5038042;28;20295;-83
2023/03/29 10:26:54;;;;;;;6.73;4.53;;;9.60;99.90;;;;;;5040708;28;20267;-84
2023/03/29 10:29:21;;;;;;;7.60;4.13;;;9.60;99.90;;;;;;5041626;28;20199;-83
2023/03/29 10:31:48;;;;;;;7.03;4.37;;;9.70;99.90;;;;;;5040009;28;20255;-82
2023/03/29 10:34:16;;;;;;;6.68;5.05;;;9.70;99.90;;;;;;5038330;28;20528;-82
2023/03/29 10:36:52;;;;;;;6.03;4.53;;;9.80;99.90;;;;;;5037700;28;20220;-82
2023/03/29 10:39:21;;;;;;;9.27;5.17;;;9.90;99.90;;;;;;5038591;28;20647;-82
2023/03/29 10:41:52;;;;;;;7.00;4.40;;;9.90;99.90;;;;;;5013734;28;20211;-81
2023/03/29 10:44:28;;;;;;;7.37;5.10;;;9.90;99.90;;;;;;5019432;28;20216;-82
2023/03/29 10:46:55;;;;;;;8.20;4.33;;;9.80;99.90;;;;;;5022330;28;20566;-82
2023/03/29 10:49:24;;;;;;;7.83;4.47;;;10.00;99.90;;;;;;5037852;28;20294;-82
2023/03/29 10:51:52;;;;;;;7.20;4.87;;;10.00;99.90;;;;;;5037578;28;20207;-82
2023/03/29 10:54:23;;;;;;;8.27;4.97;;;10.10;99.90;;;;;;5037596;28;20215;-82
2023/03/29 10:56:54;;;;;;;5.77;4.07;;;10.10;99.90;;;;;;5038665;28;20223;-83
2023/03/29 10:59:27;;;;;;;5.90;4.27;;;10.10;99.90;;;;;;5037873;28;20231;-82
2023/03/29 11:02:24;;;;;;;6.10;4.17;;;10.00;99.90;;;;;;5020320;28;20538;-82
2023/03/29 11:05:01;;;;;;;8.10;4.80;;;10.10;99.90;;;;;;5013786;28;20303;-82
2023/03/29 11:07:32;;;;;;;9.20;5.30;;;10.20;99.90;;;;;;5028976;28;20184;-81
2023/03/29 11:10:16;;;;;;;8.00;4.80;;;10.40;99.90;;;;;;5012462;28;20215;-81
2023/03/29 11:12:49;;;;;;;9.67;5.50;;;10.30;99.90;;;;;;5019978;28;20227;-81
2023/03/29 11:15:34;;;;;;;7.93;5.37;;;10.40;99.90;;;;;;5031193;28;20196;-81
2023/03/29 11:18:12;;;;;;;10.50;5.23;;;10.40;99.90;;;;;;5030367;28;20222;-81
2023/03/29 11:20:44;;;;;;;11.20;5.70;;;10.70;99.90;;;;;;5026911;28;20326;-82
2023/03/29 11:23:26;;;;;;;9.70;5.60;;;10.90;99.90;;;;;;5019417;28;20235;-80
2023/03/29 11:26:04;;;;;;;9.73;6.10;;;10.80;99.90;;;;;;5014112;28;20200;-81
2023/03/29 11:28:36;;;;;;;10.00;5.70;;;11.10;99.90;;;;;;5013376;28;20212;-81
2023/03/29 11:31:13;;;;;;;9.97;6.40;;;11.40;99.90;;;;;;5013181;28;20216;-81
2023/03/29 11:33:52;;;;;;;9.30;5.93;;;11.40;99.90;;;;;;5025986;28;20227;-82
2023/03/29 11:36:29;;;;;;;10.13;6.40;;;11.70;99.90;;;;;;5033277;28;20229;-79
2023/03/29 11:39:04;;;;;;;9.97;5.40;;;12.00;99.90;;;;;;5036257;28;20227;-80
2023/03/29 11:41:34;;;;;;;9.87;5.37;;;11.90;99.90;;;;;;5036744;28;20655;-80
2023/03/29 11:44:04;;;;;;;10.80;5.77;;;12.00;99.90;;;;;;5035623;28;20622;-81
2023/03/29 11:46:36;;;;;;;8.77;5.63;;;12.20;99.90;;;;;;5037836;28;20204;-80
2023/03/29 11:49:11;;;;;;;12.03;5.97;;;12.10;99.90;;;;;;5035549;28;20663;-81
2023/03/29 11:51:43;;;;;;;12.47;6.27;;;12.10;99.90;;;;;;5037835;28;20184;-81
2023/03/29 11:54:18;;;;;;;8.17;5.87;;;12.40;99.90;;;;;;5037263;28;20234;-81
2023/03/29 11:56:50;;;;;;;7.83;5.70;;;12.60;99.90;;;;;;5037857;28;20211;-81
2023/03/29 11:59:22;;;;;;;9.17;5.03;;;12.60;99.90;;;;;;5037644;28;20659;-81
2023/03/29 12:01:55;;;;;;;9.83;5.37;;;12.70;99.90;;;;;;5036987;28;20184;-81
2023/03/29 12:04:27;;;;;;;9.07;5.50;;;12.60;99.90;;;;;;5037162;28;20250;-81
2023/03/29 12:07:05;;;;;;;10.43;5.47;;;12.60;99.90;;;;;;5037092;28;20192;-82
2023/03/29 12:09:39;;;;;;;7.63;4.93;;;12.90;99.90;;;;;;5036793;28;20222;-81
2023/03/29 12:12:10;;;;;;;6.80;5.40;;;12.60;99.90;;;;;;5038101;28;20271;-80
2023/03/29 12:14:53;;;;;;;8.57;5.47;;;12.60;99.90;;;;;;5036812;28;20187;-81
2023/03/29 12:17:27;;;;;;;8.33;5.40;;;12.50;99.90;;;;;;5037138;28;20230;-83
2023/03/29 12:20:04;;;;;;;11.73;5.37;;;12.70;99.90;;;;;;5035959;28;20644;-82
2023/03/29 12:22:31;;;;;;;10.00;5.40;;;13.00;99.90;;;;;;5036849;28;20597;-82
2023/03/29 12:25:03;;;;;;;8.77;5.70;;;13.00;99.90;;;;;;5036038;28;20699;-81
2023/03/29 12:27:33;;;;;;;9.73;5.40;;;13.00;99.90;;;;;;5034071;28;20566;-82
2023/03/29 12:30:23;;;;;;;7.80;5.37;;;13.20;99.90;;;;;;5036568;28;20228;-82
2023/03/29 12:46:09;;;;;;;7.60;5.30;;;13.00;99.90;;;;;;5119531;27;21058;-71
2023/03/29 12:48:40;;;;;;;8.13;4.93;;;12.90;99.90;;;;;;5122701;28;20204;-71
2023/03/29 12:51:12;;;;;;;8.20;5.00;;;12.80;99.90;;;;;;5123059;28;20295;-71
2023/03/29 12:53:40;;;;;;;8.67;5.43;;;12.50;99.90;;;;;;5130864;27;20312;-72
2023/03/29 12:56:16;;;;;;;8.50;5.03;;;12.60;99.90;;;;;;5130447;27;20200;-71
2023/03/29 12:58:53;;;;;;;9.23;5.10;;;12.50;99.90;;;;;;5126178;27;20211;-71
2023/03/29 13:01:29;;;;;;;7.07;4.73;;;12.30;99.90;;;;;;5130104;27;20200;-71
2023/03/29 13:04:13;;;;;;;8.70;5.43;;;12.30;99.90;;;;;;5130656;27;20248;-70
2023/03/29 13:07:01;;;;;;;7.43;5.13;;;12.20;99.90;;;;;;5129727;27;20219;-71
2023/03/29 13:09:30;;;;;;;9.60;5.23;;;12.10;99.90;;;;;;5129474;27;20197;-71
2023/03/29 13:12:03;;;;;;;7.50;4.73;;;12.00;99.90;;;;;;5128506;27;20526;-71
2023/03/29 13:14:33;;;;;;;5.87;4.93;;;11.90;99.90;;;;;;5133891;27;20269;-71
2023/03/29 13:17:04;;;;;;;6.77;4.93;;;11.80;99.90;;;;;;5135798;27;20197;-71
2023/03/29 13:19:36;;;;;;;7.97;5.70;;;11.70;99.90;;;;;;5124905;27;20211;-70
2023/03/29 13:22:20;;;;;;;6.60;5.10;;;11.80;99.90;;;;;;5115242;28;20197;-71
2023/03/29 13:25:05;;;;;;;8.40;5.40;;;11.90;99.90;;;;;;5122072;28;20284;-71